sensor_id;sensor_type;location;lat;lon;timestamp;P1;durP1;ratioP1;P2;durP2;ratioP2
25946;SDS011;13745;51.470;9.894;2023-04-25T00:01:54;9.15;;;3.75;;
25946;SDS011;13745;51.470;9.894;2023-04-25T00:04:40;10.88;;;4.63;;
25946;SDS011;13745;51.470;9.894;2023-04-25T00:07:26;9.93;;;3.97;;
25946;SDS011;13745;51.470;9.894;2023-04-25T00:10:11;8.70;;;3.95;;
25946;SDS011;13745;51.470;9.894;2023-04-25T00:12:56;6.03;;;4.05;;
25946;SDS011;13745;51.470;9.894;2023-04-25T00:15:42;9.60;;;4.35;;
25946;SDS011;13745;51.470;9.894;2023-04-25T00:18:28;9.32;;;4.55;;
25946;SDS011;13745;51.470;9.894;2023-04-25T00:21:13;11.25;;;4.78;;
25946;SDS011;13745;51.470;9.894;2023-04-25T00:24:00;10.35;;;4.65;;
25946;SDS011;13745;51.470;9.894;2023-04-25T00:26:45;12.45;;;5.28;;
25946;SDS011;13745;51.470;9.894;2023-04-25T00:29:30;12.50;;;5.60;;
25946;SDS011;13745;51.470;9.894;2023-04-25T00:32:15;8.70;;;5.38;;
25946;SDS011;13745;51.470;9.894;2023-04-25T00:35:01;12.57;;;5.75;;
25946;SDS011;13745;51.470;9.894;2023-04-25T00:37:46;8.98;;;4.60;;
25946;SDS011;13745;51.470;9.894;2023-04-25T00:40:32;12.40;;;5.82;;
25946;SDS011;13745;51.470;9.894;2023-04-25T00:43:18;11.73;;;5.72;;
25946;SDS011;13745;51.470;9.894;2023-04-25T00:46:03;11.45;;;5.55;;
25946;SDS011;13745;51.470;9.894;2023-04-25T00:48:49;12.30;;;6.20;;
25946;SDS011;13745;51.470;9.894;2023-04-25T00:51:34;10.98;;;6.18;;
25946;SDS011;13745;51.470;9.894;2023-04-25T00:54:19;13.55;;;6.97;;
25946;SDS011;13745;51.470;9.894;2023-04-25T00:57:06;14.07;;;6.85;;
25946;SDS011;13745;51.470;9.894;2023-04-25T00:59:52;12.18;;;7.60;;
25946;SDS011;13745;51.470;9.894;2023-04-25T01:02:37;12.13;;;6.90;;
25946;SDS011;13745;51.470;9.894;2023-04-25T01:05:23;12.77;;;7.00;;
25946;SDS011;13745;51.470;9.894;2023-04-25T01:08:08;16.48;;;7.57;;
25946;SDS011;13745;51.470;9.894;2023-04-25T01:10:53;17.60;;;7.35;;
25946;SDS011;13745;51.470;9.894;2023-04-25T01:13:40;12.80;;;6.95;;
25946;SDS011;13745;51.470;9.894;2023-04-25T01:16:25;12.27;;;6.82;;
25946;SDS011;13745;51.470;9.894;2023-04-25T01:19:10;9.00;;;6.55;;
25946;SDS011;13745;51.470;9.894;2023-04-25T01:21:57;7.72;;;6.13;;
25946;SDS011;13745;51.470;9.894;2023-04-25T01:24:43;18.33;;;7.00;;
25946;SDS011;13745;51.470;9.894;2023-04-25T01:27:29;16.48;;;6.38;;
25946;SDS011;13745;51.470;9.894;2023-04-25T01:30:14;9.13;;;6.18;;
25946;SDS011;13745;51.470;9.894;2023-04-25T01:33:00;10.77;;;5.88;;
25946;SDS011;13745;51.470;9.894;2023-04-25T01:35:46;12.05;;;6.57;;
25946;SDS011;13745;51.470;9.894;2023-04-25T01:38:32;16.10;;;5.57;;
25946;SDS011;13745;51.470;9.894;2023-04-25T01:41:18;16.90;;;6.65;;
25946;SDS011;13745;51.470;9.894;2023-04-25T01:44:04;14.15;;;6.38;;
25946;SDS011;13745;51.470;9.894;2023-04-25T01:46:49;12.70;;;6.05;;
25946;SDS011;13745;51.470;9.894;2023-04-25T01:49:34;14.77;;;6.50;;
25946;SDS011;13745;51.470;9.894;2023-04-25T01:52:19;10.88;;;6.20;;
25946;SDS011;13745;51.470;9.894;2023-04-25T01:55:07;16.65;;;6.80;;
25946;SDS011;13745;51.470;9.894;2023-04-25T01:57:57;14.90;;;6.80;;
25946;SDS011;13745;51.470;9.894;2023-04-25T02:00:57;16.48;;;7.70;;
25946;SDS011;13745;51.470;9.894;2023-04-25T02:03:46;14.93;;;6.70;;
25946;SDS011;13745;51.470;9.894;2023-04-25T02:06:40;19.08;;;7.63;;
25946;SDS011;13745;51.470;9.894;2023-04-25T02:09:25;14.15;;;7.53;;
25946;SDS011;13745;51.470;9.894;2023-04-25T02:12:14;13.32;;;6.57;;
25946;SDS011;13745;51.470;9.894;2023-04-25T02:15:30;11.90;;;6.55;;
25946;SDS011;13745;51.470;9.894;2023-04-25T02:18:27;15.00;;;7.00;;
25946;SDS011;13745;51.470;9.894;2023-04-25T02:21:12;14.65;;;7.22;;
25946;SDS011;13745;51.470;9.894;2023-04-25T02:23:57;19.13;;;7.10;;
25946;SDS011;13745;51.470;9.894;2023-04-25T02:26:45;18.45;;;7.28;;
25946;SDS011;13745;51.470;9.894;2023-04-25T02:29:32;13.82;;;7.05;;
25946;SDS011;13745;51.470;9.894;2023-04-25T02:32:17;16.40;;;7.13;;
25946;SDS011;13745;51.470;9.894;2023-04-25T02:35:05;18.88;;;7.75;;
25946;SDS011;13745;51.470;9.894;2023-04-25T02:37:50;17.48;;;6.57;;
25946;SDS011;13745;51.470;9.894;2023-04-25T02:40:36;20.50;;;7.97;;
25946;SDS011;13745;51.470;9.894;2023-04-25T02:43:21;13.93;;;6.85;;
25946;SDS011;13745;51.470;9.894;2023-04-25T02:46:07;13.68;;;7.20;;
25946;SDS011;13745;51.470;9.894;2023-04-25T02:48:52;15.02;;;6.53;;
25946;SDS011;13745;51.470;9.894;2023-04-25T02:51:37;16.38;;;6.30;;
25946;SDS011;13745;51.470;9.894;2023-04-25T02:54:22;13.50;;;6.15;;
25946;SDS011;13745;51.470;9.894;2023-04-25T02:57:08;13.77;;;6.18;;
25946;SDS011;13745;51.470;9.894;2023-04-25T02:59:54;17.80;;;6.65;;
25946;SDS011;13745;51.470;9.894;2023-04-25T03:02:41;14.38;;;6.43;;
25946;SDS011;13745;51.470;9.894;2023-04-25T03:05:26;17.13;;;6.32;;
25946;SDS011;13745;51.470;9.894;2023-04-25T03:08:11;15.35;;;6.18;;
25946;SDS011;13745;51.470;9.894;2023-04-25T03:10:56;11.23;;;5.80;;
25946;SDS011;13745;51.470;9.894;2023-04-25T03:13:42;11.73;;;5.95;;
25946;SDS011;13745;51.470;9.894;2023-04-25T03:16:28;14.02;;;6.05;;
25946;SDS011;13745;51.470;9.894;2023-04-25T03:19:15;12.90;;;6.22;;
25946;SDS011;13745;51.470;9.894;2023-04-25T03:22:00;12.00;;;6.10;;
25946;SDS011;13745;51.470;9.894;2023-04-25T03:24:46;14.45;;;7.60;;
25946;SDS011;13745;51.470;9.894;2023-04-25T03:27:31;10.63;;;5.78;;
25946;SDS011;13745;51.470;9.894;2023-04-25T03:30:16;15.85;;;5.82;;
25946;SDS011;13745;51.470;9.894;2023-04-25T03:33:02;15.10;;;6.88;;
25946;SDS011;13745;51.470;9.894;2023-04-25T03:35:49;12.77;;;6.03;;
25946;SDS011;13745;51.470;9.894;2023-04-25T03:38:34;11.82;;;6.25;;
25946;SDS011;13745;51.470;9.894;2023-04-25T03:41:20;11.45;;;5.88;;
25946;SDS011;13745;51.470;9.894;2023-04-25T03:44:19;16.02;;;6.15;;
25946;SDS011;13745;51.470;9.894;2023-04-25T03:47:05;19.75;;;7.05;;
25946;SDS011;13745;51.470;9.894;2023-04-25T03:49:50;17.45;;;6.70;;
25946;SDS011;13745;51.470;9.894;2023-04-25T03:52:40;19.17;;;6.72;;
25946;SDS011;13745;51.470;9.894;2023-04-25T03:55:26;14.60;;;6.53;;
25946;SDS011;13745;51.470;9.894;2023-04-25T03:58:11;11.85;;;5.93;;
25946;SDS011;13745;51.470;9.894;2023-04-25T04:00:56;16.95;;;6.45;;
25946;SDS011;13745;51.470;9.894;2023-04-25T04:03:41;18.88;;;6.72;;
25946;SDS011;13745;51.470;9.894;2023-04-25T04:06:26;12.52;;;7.05;;
25946;SDS011;13745;51.470;9.894;2023-04-25T04:09:22;17.58;;;6.70;;
25946;SDS011;13745;51.470;9.894;2023-04-25T04:12:07;15.63;;;7.25;;
25946;SDS011;13745;51.470;9.894;2023-04-25T04:14:55;13.95;;;6.75;;
25946;SDS011;13745;51.470;9.894;2023-04-25T04:17:40;12.95;;;6.38;;
25946;SDS011;13745;51.470;9.894;2023-04-25T04:20:26;15.00;;;6.15;;
25946;SDS011;13745;51.470;9.894;2023-04-25T04:23:11;14.45;;;6.78;;
25946;SDS011;13745;51.470;9.894;2023-04-25T04:25:58;25.80;;;9.45;;
25946;SDS011;13745;51.470;9.894;2023-04-25T04:29:00;15.98;;;6.93;;
25946;SDS011;13745;51.470;9.894;2023-04-25T04:32:03;18.85;;;8.68;;
25946;SDS011;13745;51.470;9.894;2023-04-25T04:34:50;19.88;;;7.32;;
25946;SDS011;13745;51.470;9.894;2023-04-25T04:37:36;13.32;;;6.30;;
25946;SDS011;13745;51.470;9.894;2023-04-25T04:40:22;9.50;;;6.05;;
25946;SDS011;13745;51.470;9.894;2023-04-25T04:43:25;18.23;;;6.55;;
25946;SDS011;13745;51.470;9.894;2023-04-25T04:46:12;16.00;;;6.82;;
25946;SDS011;13745;51.470;9.894;2023-04-25T04:49:18;13.95;;;6.50;;
25946;SDS011;13745;51.470;9.894;2023-04-25T04:52:03;14.07;;;6.88;;
25946;SDS011;13745;51.470;9.894;2023-04-25T04:54:57;13.60;;;7.13;;
25946;SDS011;13745;51.470;9.894;2023-04-25T04:58:01;12.52;;;6.10;;
25946;SDS011;13745;51.470;9.894;2023-04-25T05:01:19;11.65;;;6.55;;
25946;SDS011;13745;51.470;9.894;2023-04-25T05:07:10;11.57;;;5.78;;
25946;SDS011;13745;51.470;9.894;2023-04-25T05:10:12;11.05;;;6.65;;
25946;SDS011;13745;51.470;9.894;2023-04-25T05:13:16;14.20;;;7.22;;
25946;SDS011;13745;51.470;9.894;2023-04-25T05:16:07;12.45;;;6.43;;
25946;SDS011;13745;51.470;9.894;2023-04-25T05:19:06;14.18;;;6.47;;
25946;SDS011;13745;51.470;9.894;2023-04-25T05:22:10;13.93;;;6.68;;
25946;SDS011;13745;51.470;9.894;2023-04-25T05:25:08;15.70;;;7.03;;
25946;SDS011;13745;51.470;9.894;2023-04-25T05:28:12;16.60;;;7.57;;
25946;SDS011;13745;51.470;9.894;2023-04-25T05:31:27;16.90;;;7.95;;
25946;SDS011;13745;51.470;9.894;2023-04-25T05:34:20;10.80;;;5.82;;
25946;SDS011;13745;51.470;9.894;2023-04-25T05:37:28;12.25;;;6.35;;
25946;SDS011;13745;51.470;9.894;2023-04-25T05:40:20;12.27;;;5.85;;
25946;SDS011;13745;51.470;9.894;2023-04-25T05:43:18;7.57;;;3.63;;
25946;SDS011;13745;51.470;9.894;2023-04-25T05:46:16;3.42;;;2.72;;
25946;SDS011;13745;51.470;9.894;2023-04-25T05:49:21;3.75;;;2.78;;
25946;SDS011;13745;51.470;9.894;2023-04-25T05:52:37;3.13;;;2.38;;
25946;SDS011;13745;51.470;9.894;2023-04-25T05:55:35;5.15;;;3.08;;
25946;SDS011;13745;51.470;9.894;2023-04-25T05:58:34;3.05;;;2.70;;
25946;SDS011;13745;51.470;9.894;2023-04-25T06:01:20;6.10;;;3.33;;
25946;SDS011;13745;51.470;9.894;2023-04-25T06:04:06;7.85;;;3.47;;
25946;SDS011;13745;51.470;9.894;2023-04-25T06:06:53;3.20;;;2.70;;
25946;SDS011;13745;51.470;9.894;2023-04-25T06:09:39;3.28;;;2.70;;
25946;SDS011;13745;51.470;9.894;2023-04-25T06:12:24;5.47;;;3.30;;
25946;SDS011;13745;51.470;9.894;2023-04-25T06:15:10;5.38;;;3.15;;
25946;SDS011;13745;51.470;9.894;2023-04-25T06:17:55;6.85;;;3.80;;
25946;SDS011;13745;51.470;9.894;2023-04-25T06:20:40;4.03;;;2.83;;
25946;SDS011;13745;51.470;9.894;2023-04-25T06:23:27;6.25;;;3.17;;
25946;SDS011;13745;51.470;9.894;2023-04-25T06:26:19;7.97;;;3.13;;
25946;SDS011;13745;51.470;9.894;2023-04-25T06:29:05;8.23;;;3.70;;
25946;SDS011;13745;51.470;9.894;2023-04-25T06:31:51;8.82;;;3.67;;
25946;SDS011;13745;51.470;9.894;2023-04-25T06:34:37;8.60;;;3.13;;
25946;SDS011;13745;51.470;9.894;2023-04-25T06:37:23;12.93;;;5.03;;
25946;SDS011;13745;51.470;9.894;2023-04-25T06:40:11;13.35;;;4.25;;
25946;SDS011;13745;51.470;9.894;2023-04-25T06:42:56;13.77;;;3.45;;
25946;SDS011;13745;51.470;9.894;2023-04-25T06:45:55;9.98;;;3.58;;
25946;SDS011;13745;51.470;9.894;2023-04-25T06:48:43;8.23;;;3.20;;
25946;SDS011;13745;51.470;9.894;2023-04-25T06:51:29;9.73;;;2.83;;
25946;SDS011;13745;51.470;9.894;2023-04-25T06:54:14;10.60;;;4.30;;
25946;SDS011;13745;51.470;9.894;2023-04-25T06:57:13;11.13;;;3.30;;
25946;SDS011;13745;51.470;9.894;2023-04-25T07:00:00;8.10;;;2.35;;
25946;SDS011;13745;51.470;9.894;2023-04-25T07:02:49;9.88;;;3.00;;
25946;SDS011;13745;51.470;9.894;2023-04-25T07:05:35;10.50;;;3.20;;
25946;SDS011;13745;51.470;9.894;2023-04-25T07:08:20;10.18;;;3.10;;
25946;SDS011;13745;51.470;9.894;2023-04-25T07:11:05;11.32;;;3.33;;
25946;SDS011;13745;51.470;9.894;2023-04-25T07:13:52;14.35;;;3.40;;
25946;SDS011;13745;51.470;9.894;2023-04-25T07:16:37;10.85;;;2.80;;
25946;SDS011;13745;51.470;9.894;2023-04-25T07:19:22;9.20;;;3.10;;
25946;SDS011;13745;51.470;9.894;2023-04-25T07:22:11;17.35;;;3.67;;
25946;SDS011;13745;51.470;9.894;2023-04-25T07:24:59;7.97;;;1.75;;
25946;SDS011;13745;51.470;9.894;2023-04-25T07:27:46;7.90;;;2.20;;
25946;SDS011;13745;51.470;9.894;2023-04-25T07:30:37;6.32;;;1.92;;
25946;SDS011;13745;51.470;9.894;2023-04-25T07:33:22;7.97;;;1.80;;
25946;SDS011;13745;51.470;9.894;2023-04-25T07:36:07;8.65;;;2.20;;
25946;SDS011;13745;51.470;9.894;2023-04-25T07:38:53;6.20;;;1.95;;
25946;SDS011;13745;51.470;9.894;2023-04-25T07:41:38;3.30;;;1.30;;
25946;SDS011;13745;51.470;9.894;2023-04-25T07:44:26;8.10;;;1.48;;
25946;SDS011;13745;51.470;9.894;2023-04-25T07:47:13;7.40;;;1.63;;
25946;SDS011;13745;51.470;9.894;2023-04-25T07:49:59;6.13;;;1.95;;
25946;SDS011;13745;51.470;9.894;2023-04-25T07:52:44;3.55;;;1.70;;
25946;SDS011;13745;51.470;9.894;2023-04-25T07:55:42;6.78;;;1.95;;
25946;SDS011;13745;51.470;9.894;2023-04-25T07:58:32;4.07;;;1.80;;
25946;SDS011;13745;51.470;9.894;2023-04-25T08:01:20;8.40;;;1.65;;
25946;SDS011;13745;51.470;9.894;2023-04-25T08:04:12;9.73;;;2.42;;
25946;SDS011;13745;51.470;9.894;2023-04-25T08:07:06;8.55;;;2.53;;
25946;SDS011;13745;51.470;9.894;2023-04-25T08:10:03;10.35;;;2.42;;
25946;SDS011;13745;51.470;9.894;2023-04-25T08:12:51;8.10;;;2.53;;
25946;SDS011;13745;51.470;9.894;2023-04-25T08:15:37;14.95;;;3.00;;
25946;SDS011;13745;51.470;9.894;2023-04-25T08:18:22;11.63;;;2.33;;
25946;SDS011;13745;51.470;9.894;2023-04-25T08:21:09;11.98;;;2.60;;
25946;SDS011;13745;51.470;9.894;2023-04-25T08:23:56;10.00;;;2.65;;
25946;SDS011;13745;51.470;9.894;2023-04-25T08:26:46;9.20;;;2.17;;
25946;SDS011;13745;51.470;9.894;2023-04-25T08:29:34;20.33;;;3.05;;
25946;SDS011;13745;51.470;9.894;2023-04-25T08:32:19;19.55;;;3.08;;
25946;SDS011;13745;51.470;9.894;2023-04-25T08:35:22;11.80;;;2.65;;
25946;SDS011;13745;51.470;9.894;2023-04-25T08:38:09;13.60;;;3.08;;
25946;SDS011;13745;51.470;9.894;2023-04-25T08:40:55;10.65;;;2.50;;
25946;SDS011;13745;51.470;9.894;2023-04-25T08:43:42;8.35;;;2.05;;
25946;SDS011;13745;51.470;9.894;2023-04-25T08:46:28;8.70;;;2.40;;
25946;SDS011;13745;51.470;9.894;2023-04-25T08:49:28;14.35;;;2.15;;
25946;SDS011;13745;51.470;9.894;2023-04-25T08:52:13;16.35;;;2.35;;
25946;SDS011;13745;51.470;9.894;2023-04-25T08:55:01;15.40;;;2.45;;
25946;SDS011;13745;51.470;9.894;2023-04-25T08:57:47;10.57;;;2.13;;
25946;SDS011;13745;51.470;9.894;2023-04-25T09:00:34;7.03;;;1.80;;
25946;SDS011;13745;51.470;9.894;2023-04-25T09:03:19;10.60;;;1.98;;
25946;SDS011;13745;51.470;9.894;2023-04-25T09:06:05;10.38;;;2.58;;
25946;SDS011;13745;51.470;9.894;2023-04-25T09:08:51;10.80;;;1.98;;
25946;SDS011;13745;51.470;9.894;2023-04-25T09:11:40;12.25;;;2.45;;
25946;SDS011;13745;51.470;9.894;2023-04-25T09:14:28;11.93;;;2.38;;
25946;SDS011;13745;51.470;9.894;2023-04-25T09:17:32;14.25;;;2.25;;
25946;SDS011;13745;51.470;9.894;2023-04-25T09:20:18;10.43;;;2.30;;
25946;SDS011;13745;51.470;9.894;2023-04-25T09:23:04;15.68;;;2.38;;
25946;SDS011;13745;51.470;9.894;2023-04-25T09:25:53;7.72;;;2.20;;
25946;SDS011;13745;51.470;9.894;2023-04-25T09:28:39;13.60;;;3.22;;
25946;SDS011;13745;51.470;9.894;2023-04-25T09:31:26;7.82;;;2.00;;
25946;SDS011;13745;51.470;9.894;2023-04-25T09:34:16;10.20;;;2.10;;
25946;SDS011;13745;51.470;9.894;2023-04-25T09:37:09;8.68;;;2.08;;
25946;SDS011;13745;51.470;9.894;2023-04-25T09:40:20;10.57;;;2.33;;
25946;SDS011;13745;51.470;9.894;2023-04-25T09:43:18;6.50;;;1.58;;
25946;SDS011;13745;51.470;9.894;2023-04-25T09:46:08;6.97;;;2.05;;
25946;SDS011;13745;51.470;9.894;2023-04-25T09:48:57;15.77;;;2.42;;
25946;SDS011;13745;51.470;9.894;2023-04-25T09:51:53;6.07;;;1.67;;
25946;SDS011;13745;51.470;9.894;2023-04-25T09:54:40;8.57;;;2.08;;
25946;SDS011;13745;51.470;9.894;2023-04-25T09:57:32;4.43;;;1.30;;
25946;SDS011;13745;51.470;9.894;2023-04-25T10:00:19;14.00;;;2.40;;
25946;SDS011;13745;51.470;9.894;2023-04-25T10:03:07;9.65;;;1.70;;
25946;SDS011;13745;51.470;9.894;2023-04-25T10:06:12;10.85;;;2.03;;
25946;SDS011;13745;51.470;9.894;2023-04-25T10:08:59;13.05;;;2.10;;
25946;SDS011;13745;51.470;9.894;2023-04-25T10:11:47;8.98;;;1.83;;
25946;SDS011;13745;51.470;9.894;2023-04-25T10:14:33;10.27;;;1.98;;
25946;SDS011;13745;51.470;9.894;2023-04-25T10:17:18;7.80;;;2.08;;
25946;SDS011;13745;51.470;9.894;2023-04-25T10:20:07;6.88;;;1.60;;
25946;SDS011;13745;51.470;9.894;2023-04-25T10:22:54;11.30;;;3.20;;
25946;SDS011;13745;51.470;9.894;2023-04-25T10:25:43;7.70;;;2.10;;
25946;SDS011;13745;51.470;9.894;2023-04-25T10:28:29;6.32;;;1.95;;
25946;SDS011;13745;51.470;9.894;2023-04-25T10:31:15;10.90;;;2.08;;
25946;SDS011;13745;51.470;9.894;2023-04-25T10:34:01;13.02;;;2.22;;
25946;SDS011;13745;51.470;9.894;2023-04-25T10:36:50;13.45;;;1.92;;
25946;SDS011;13745;51.470;9.894;2023-04-25T10:39:37;7.68;;;1.65;;
25946;SDS011;13745;51.470;9.894;2023-04-25T10:42:23;9.63;;;1.77;;
25946;SDS011;13745;51.470;9.894;2023-04-25T10:45:10;8.60;;;2.10;;
25946;SDS011;13745;51.470;9.894;2023-04-25T10:47:55;8.43;;;1.95;;
25946;SDS011;13745;51.470;9.894;2023-04-25T10:50:40;5.97;;;1.65;;
25946;SDS011;13745;51.470;9.894;2023-04-25T10:53:27;8.57;;;1.67;;
25946;SDS011;13745;51.470;9.894;2023-04-25T10:56:16;7.80;;;1.90;;
25946;SDS011;13745;51.470;9.894;2023-04-25T10:59:07;9.80;;;1.65;;
25946;SDS011;13745;51.470;9.894;2023-04-25T11:01:53;11.30;;;2.03;;
25946;SDS011;13745;51.470;9.894;2023-04-25T11:04:40;6.43;;;1.38;;
25946;SDS011;13745;51.470;9.894;2023-04-25T11:07:26;3.30;;;1.48;;
25946;SDS011;13745;51.470;9.894;2023-04-25T11:13:04;8.93;;;1.50;;
25946;SDS011;13745;51.470;9.894;2023-04-25T11:15:51;5.65;;;1.65;;
25946;SDS011;13745;51.470;9.894;2023-04-25T11:18:36;7.40;;;1.52;;
25946;SDS011;13745;51.470;9.894;2023-04-25T11:21:22;7.30;;;1.65;;
25946;SDS011;13745;51.470;9.894;2023-04-25T11:24:07;10.15;;;1.50;;
25946;SDS011;13745;51.470;9.894;2023-04-25T11:26:53;8.35;;;1.50;;
25946;SDS011;13745;51.470;9.894;2023-04-25T11:29:39;5.35;;;1.40;;
25946;SDS011;13745;51.470;9.894;2023-04-25T11:32:25;5.05;;;1.00;;
25946;SDS011;13745;51.470;9.894;2023-04-25T11:35:10;6.45;;;1.08;;
25946;SDS011;13745;51.470;9.894;2023-04-25T11:37:55;7.75;;;1.58;;
25946;SDS011;13745;51.470;9.894;2023-04-25T11:40:40;5.97;;;1.30;;
25946;SDS011;13745;51.470;9.894;2023-04-25T11:43:27;7.40;;;1.23;;
25946;SDS011;13745;51.470;9.894;2023-04-25T11:46:12;6.55;;;1.15;;
25946;SDS011;13745;51.470;9.894;2023-04-25T11:48:57;2.78;;;1.00;;
25946;SDS011;13745;51.470;9.894;2023-04-25T11:51:42;5.72;;;1.75;;
25946;SDS011;13745;51.470;9.894;2023-04-25T11:54:28;6.95;;;2.20;;
25946;SDS011;13745;51.470;9.894;2023-04-25T11:57:13;5.78;;;1.80;;
25946;SDS011;13745;51.470;9.894;2023-04-25T12:00:06;7.07;;;1.80;;
25946;SDS011;13745;51.470;9.894;2023-04-25T12:02:56;4.57;;;1.23;;
25946;SDS011;13745;51.470;9.894;2023-04-25T12:05:42;3.67;;;1.42;;
25946;SDS011;13745;51.470;9.894;2023-04-25T12:08:27;6.90;;;1.33;;
25946;SDS011;13745;51.470;9.894;2023-04-25T12:11:20;8.02;;;1.20;;
25946;SDS011;13745;51.470;9.894;2023-04-25T12:14:05;5.20;;;1.80;;
25946;SDS011;13745;51.470;9.894;2023-04-25T12:16:52;8.32;;;2.03;;
25946;SDS011;13745;51.470;9.894;2023-04-25T12:19:39;8.30;;;1.70;;
25946;SDS011;13745;51.470;9.894;2023-04-25T12:22:24;5.45;;;1.13;;
25946;SDS011;13745;51.470;9.894;2023-04-25T12:25:10;11.52;;;1.30;;
25946;SDS011;13745;51.470;9.894;2023-04-25T12:28:08;3.85;;;1.13;;
25946;SDS011;13745;51.470;9.894;2023-04-25T12:30:55;2.13;;;1.08;;
25946;SDS011;13745;51.470;9.894;2023-04-25T12:33:43;4.70;;;1.80;;
25946;SDS011;13745;51.470;9.894;2023-04-25T12:36:31;4.90;;;1.27;;
25946;SDS011;13745;51.470;9.894;2023-04-25T12:39:16;4.65;;;1.10;;
25946;SDS011;13745;51.470;9.894;2023-04-25T12:42:03;4.97;;;1.58;;
25946;SDS011;13745;51.470;9.894;2023-04-25T12:44:48;8.00;;;1.40;;
25946;SDS011;13745;51.470;9.894;2023-04-25T12:47:33;4.15;;;1.15;;
25946;SDS011;13745;51.470;9.894;2023-04-25T12:50:20;4.97;;;1.20;;
25946;SDS011;13745;51.470;9.894;2023-04-25T12:53:05;5.72;;;1.42;;
25946;SDS011;13745;51.470;9.894;2023-04-25T12:55:50;4.65;;;1.20;;
25946;SDS011;13745;51.470;9.894;2023-04-25T12:58:35;4.72;;;1.63;;
25946;SDS011;13745;51.470;9.894;2023-04-25T13:01:20;4.90;;;1.10;;
25946;SDS011;13745;51.470;9.894;2023-04-25T13:04:05;6.55;;;1.38;;
25946;SDS011;13745;51.470;9.894;2023-04-25T13:06:52;4.60;;;1.70;;
25946;SDS011;13745;51.470;9.894;2023-04-25T13:09:37;4.68;;;1.27;;
25946;SDS011;13745;51.470;9.894;2023-04-25T13:12:22;2.70;;;1.27;;
25946;SDS011;13745;51.470;9.894;2023-04-25T13:15:07;6.07;;;1.10;;
25946;SDS011;13745;51.470;9.894;2023-04-25T13:17:54;9.05;;;1.65;;
25946;SDS011;13745;51.470;9.894;2023-04-25T13:20:40;6.25;;;1.35;;
25946;SDS011;13745;51.470;9.894;2023-04-25T13:23:27;4.72;;;1.00;;
25946;SDS011;13745;51.470;9.894;2023-04-25T13:26:13;3.58;;;1.05;;
25946;SDS011;13745;51.470;9.894;2023-04-25T13:28:58;4.95;;;1.00;;
25946;SDS011;13745;51.470;9.894;2023-04-25T13:31:44;4.32;;;1.38;;
25946;SDS011;13745;51.470;9.894;2023-04-25T13:34:29;5.30;;;0.90;;
25946;SDS011;13745;51.470;9.894;2023-04-25T13:37:14;8.32;;;1.38;;
25946;SDS011;13745;51.470;9.894;2023-04-25T13:40:01;6.07;;;1.25;;
25946;SDS011;13745;51.470;9.894;2023-04-25T13:42:48;3.70;;;1.17;;
25946;SDS011;13745;51.470;9.894;2023-04-25T13:45:33;5.65;;;1.65;;
25946;SDS011;13745;51.470;9.894;2023-04-25T13:48:18;4.82;;;0.82;;
25946;SDS011;13745;51.470;9.894;2023-04-25T13:51:03;4.35;;;1.13;;
25946;SDS011;13745;51.470;9.894;2023-04-25T13:53:48;6.18;;;1.70;;
25946;SDS011;13745;51.470;9.894;2023-04-25T13:56:34;4.95;;;1.23;;
25946;SDS011;13745;51.470;9.894;2023-04-25T13:59:20;5.15;;;1.65;;
25946;SDS011;13745;51.470;9.894;2023-04-25T14:02:06;3.70;;;0.90;;
25946;SDS011;13745;51.470;9.894;2023-04-25T14:04:51;7.30;;;1.30;;
25946;SDS011;13745;51.470;9.894;2023-04-25T14:07:36;5.13;;;1.30;;
25946;SDS011;13745;51.470;9.894;2023-04-25T14:10:22;2.45;;;0.70;;
25946;SDS011;13745;51.470;9.894;2023-04-25T14:13:08;4.30;;;1.17;;
25946;SDS011;13745;51.470;9.894;2023-04-25T14:15:53;4.63;;;1.02;;
25946;SDS011;13745;51.470;9.894;2023-04-25T14:18:38;8.05;;;1.80;;
25946;SDS011;13745;51.470;9.894;2023-04-25T14:21:23;3.53;;;1.10;;
25946;SDS011;13745;51.470;9.894;2023-04-25T14:24:10;5.95;;;1.10;;
25946;SDS011;13745;51.470;9.894;2023-04-25T14:26:55;4.50;;;1.10;;
25946;SDS011;13745;51.470;9.894;2023-04-25T14:29:42;7.07;;;1.17;;
25946;SDS011;13745;51.470;9.894;2023-04-25T14:32:28;3.08;;;1.00;;
25946;SDS011;13745;51.470;9.894;2023-04-25T14:35:12;4.63;;;1.23;;
25946;SDS011;13745;51.470;9.894;2023-04-25T14:37:58;9.00;;;1.20;;
25946;SDS011;13745;51.470;9.894;2023-04-25T14:40:43;5.93;;;1.00;;
25946;SDS011;13745;51.470;9.894;2023-04-25T14:43:28;6.72;;;1.27;;
25946;SDS011;13745;51.470;9.894;2023-04-25T14:46:14;2.72;;;0.98;;
25946;SDS011;13745;51.470;9.894;2023-04-25T14:49:00;3.30;;;0.85;;
25946;SDS011;13745;51.470;9.894;2023-04-25T14:51:45;8.27;;;1.35;;
25946;SDS011;13745;51.470;9.894;2023-04-25T14:54:30;3.20;;;1.00;;
25946;SDS011;13745;51.470;9.894;2023-04-25T14:57:15;4.15;;;1.10;;
25946;SDS011;13745;51.470;9.894;2023-04-25T15:00:01;8.23;;;1.08;;
25946;SDS011;13745;51.470;9.894;2023-04-25T15:02:50;3.20;;;1.02;;
25946;SDS011;13745;51.470;9.894;2023-04-25T15:05:35;5.90;;;1.20;;
25946;SDS011;13745;51.470;9.894;2023-04-25T15:08:20;6.32;;;1.65;;
25946;SDS011;13745;51.470;9.894;2023-04-25T15:11:06;7.38;;;1.17;;
25946;SDS011;13745;51.470;9.894;2023-04-25T15:13:51;4.35;;;1.55;;
25946;SDS011;13745;51.470;9.894;2023-04-25T15:16:36;5.85;;;1.58;;
25946;SDS011;13745;51.470;9.894;2023-04-25T15:19:22;4.95;;;1.30;;
25946;SDS011;13745;51.470;9.894;2023-04-25T15:22:08;3.70;;;1.25;;
25946;SDS011;13745;51.470;9.894;2023-04-25T15:24:53;5.32;;;1.38;;
25946;SDS011;13745;51.470;9.894;2023-04-25T15:27:39;6.63;;;1.05;;
25946;SDS011;13745;51.470;9.894;2023-04-25T15:30:27;2.85;;;1.10;;
25946;SDS011;13745;51.470;9.894;2023-04-25T15:33:12;3.97;;;1.10;;
25946;SDS011;13745;51.470;9.894;2023-04-25T15:35:59;3.70;;;1.02;;
25946;SDS011;13745;51.470;9.894;2023-04-25T15:38:46;2.97;;;1.10;;
25946;SDS011;13745;51.470;9.894;2023-04-25T15:41:31;3.97;;;1.10;;
25946;SDS011;13745;51.470;9.894;2023-04-25T15:44:17;5.15;;;1.10;;
25946;SDS011;13745;51.470;9.894;2023-04-25T15:47:02;3.88;;;1.20;;
25946;SDS011;13745;51.470;9.894;2023-04-25T15:49:47;4.85;;;1.05;;
25946;SDS011;13745;51.470;9.894;2023-04-25T15:52:34;7.15;;;1.20;;
25946;SDS011;13745;51.470;9.894;2023-04-25T15:55:20;4.65;;;0.90;;
25946;SDS011;13745;51.470;9.894;2023-04-25T15:58:06;6.18;;;1.23;;
25946;SDS011;13745;51.470;9.894;2023-04-25T16:00:51;3.60;;;1.13;;
25946;SDS011;13745;51.470;9.894;2023-04-25T16:03:38;3.88;;;1.20;;
25946;SDS011;13745;51.470;9.894;2023-04-25T16:06:23;3.50;;;1.10;;
25946;SDS011;13745;51.470;9.894;2023-04-25T16:09:10;3.92;;;1.25;;
25946;SDS011;13745;51.470;9.894;2023-04-25T16:11:56;3.47;;;1.77;;
25946;SDS011;13745;51.470;9.894;2023-04-25T16:14:41;3.67;;;1.50;;
25946;SDS011;13745;51.470;9.894;2023-04-25T16:17:26;6.32;;;1.60;;
25946;SDS011;13745;51.470;9.894;2023-04-25T16:20:12;4.32;;;1.67;;
25946;SDS011;13745;51.470;9.894;2023-04-25T16:22:57;2.63;;;1.20;;
25946;SDS011;13745;51.470;9.894;2023-04-25T16:25:44;4.03;;;1.23;;
25946;SDS011;13745;51.470;9.894;2023-04-25T16:28:29;3.70;;;1.27;;
25946;SDS011;13745;51.470;9.894;2023-04-25T16:31:14;5.45;;;0.90;;
25946;SDS011;13745;51.470;9.894;2023-04-25T16:33:59;2.25;;;0.80;;
25946;SDS011;13745;51.470;9.894;2023-04-25T16:36:45;1.63;;;1.10;;
25946;SDS011;13745;51.470;9.894;2023-04-25T16:39:30;3.30;;;0.82;;
25946;SDS011;13745;51.470;9.894;2023-04-25T16:42:16;3.05;;;1.00;;
25946;SDS011;13745;51.470;9.894;2023-04-25T16:45:02;3.63;;;1.10;;
25946;SDS011;13745;51.470;9.894;2023-04-25T16:47:48;3.38;;;1.10;;
25946;SDS011;13745;51.470;9.894;2023-04-25T16:50:34;3.28;;;0.90;;
25946;SDS011;13745;51.470;9.894;2023-04-25T16:53:19;6.57;;;0.90;;